Terminal Aerodrome Forecast
Issued by NWS North Platte, NE

Home | Current Version | Previous Version | Graphics & Text | Print | Product List | Glossary On
Versions: 1 2 3 4 5 6 7 8 9 10 11 12 13 14 15 16 17 18 19 20 21 22 23 24 25 26
000
FTUS43 KLBF 260800 AAA
TAFVTN
TAF AMD
KVTN 260816Z 2608/2706 36015KT P6SM FEW019 OVC025
     FM261200 36008KT P6SM SCT025
     FM261600 35013KT P6SM SKC
     FM270000 03006KT P6SM SKC=

USA.gov is the U.S. government's official web portal to all federal, state and local government web resources and services.